| time (UTC) | temp C | wind direction | speed KPH | gust KPH | rain 1hr cm | rain 24hr cm | rain mn cm | humidity % | barometer mb |
| 20260510230516 | 18 | 335 | 0.0 | 3.2 | 0.00 | 0.03 | 0.03 | 71 | 1013.7 |
| 20260510225517 | 18 | 320 | 0.0 | 3.2 | 0.00 | 0.03 | 0.03 | 74 | 1013.6 |
| 20260510224516 | 18 | 342 | 1.6 | 3.2 | 0.00 | 0.03 | 0.03 | 74 | 1013.5 |
| 20260510223517 | 18 | 338 | 1.6 | 3.2 | 0.03 | 0.03 | 0.03 | 76 | 1013.6 |
| 20260510222517 | 18 | 331 | 1.6 | 3.2 | 0.03 | 0.03 | 0.03 | 77 | 1013.6 |
| 20260510221537 | 18 | 328 | 0.0 | 3.2 | 0.03 | 0.03 | 0.03 | 76 | 1013.4 |
| 20260510220517 | 18 | 339 | 1.6 | 3.2 | 0.03 | 0.03 | 0.03 | 73 | 1013.4 |
| 20260510215518 | 18 | 357 | 1.6 | 4.8 | 0.03 | 0.03 | 0.03 | 72 | 1013.4 |
| 20260510214515 | 19 | 335 | 1.6 | 4.8 | 0.03 | 0.03 | 0.03 | 70 | 1013.4 |
| 20260510213535 | 20 | 326 | 1.6 | 4.8 | 0.00 | 0.00 | 0.00 | 67 | 1013.4 |
| 20260510212515 | 20 | 293 | 1.6 | 4.8 | 0.00 | 0.00 | 0.00 | 66 | 1013.3 |
| 20260510211536 | 20 | 342 | 1.6 | 3.2 | 0.00 | 0.05 | 0.00 | 66 | 1013.0 |
| 20260510210515 | 20 | 325 | 1.6 | 9.7 | 0.00 | 0.20 | 0.00 | 64 | 1013.1 |
| 20260510205516 | 21 | 326 | 1.6 | 4.8 | 0.00 | 0.20 | 0.00 | 62 | 1013.0 |
| 20260510204516 | 21 | 319 | 1.6 | 8.0 | 0.00 | 0.23 | 0.00 | 60 | 1012.9 |
| 20260510203556 | 22 | 332 | 1.6 | 4.8 | 0.00 | 0.25 | 0.00 | 59 | 1012.7 |
| 20260510202516 | 22 | 302 | 1.6 | 4.8 | 0.00 | 0.25 | 0.00 | 58 | 1012.6 |
| 20260510201516 | 23 | 320 | 3.2 | 11.3 | 0.00 | 0.25 | 0.00 | 55 | 1012.5 |
| 20260510200517 | 23 | 317 | 3.2 | 9.7 | 0.00 | 0.25 | 0.00 | 54 | 1012.4 |
| 20260510195517 | 24 | 320 | 3.2 | 8.0 | 0.00 | 0.25 | 0.00 | 52 | 1012.5 |
| 20260510194517 | 24 | 261 | 3.2 | 8.0 | 0.00 | 0.25 | 0.00 | 52 | 1012.4 |
| 20260510193537 | 25 | 243 | 4.8 | 12.9 | 0.00 | 0.25 | 0.00 | 48 | 1012.6 |
| 20260510192518 | 25 | 257 | 4.8 | 12.9 | 0.00 | 0.25 | 0.00 | 46 | 1012.6 |
| 20260510191537 | 25 | 253 | 4.8 | 11.3 | 0.00 | 0.25 | 0.00 | 49 | 1012.6 |
| 20260510190518 | 25 | 270 | 1.6 | 4.8 | 0.00 | 0.25 | 0.00 | 52 | 1012.6 |
| 20260510185518 | 24 | 245 | 4.8 | 9.7 | 0.00 | 0.25 | 0.00 | 51 | 1012.7 |
| 20260510184518 | 24 | 246 | 4.8 | 9.7 | 0.00 | 0.25 | 0.00 | 51 | 1012.8 |
| 20260510183515 | 24 | 258 | 4.8 | 8.0 | 0.00 | 0.25 | 0.00 | 53 | 1012.7 |
| 20260510182515 | 23 | 246 | 4.8 | 9.7 | 0.00 | 0.25 | 0.00 | 55 | 1012.7 |
| 20260510181515 | 23 | 256 | 3.2 | 8.0 | 0.00 | 0.25 | 0.00 | 57 | 1012.7 |
| 20260510180516 | 23 | 233 | 4.8 | 8.0 | 0.00 | 0.25 | 0.00 | 58 | 1012.6 |
| 20260510175516 | 23 | 243 | 3.2 | 8.0 | 0.00 | 0.25 | 0.00 | 60 | 1012.8 |
| 20260510174515 | 23 | 245 | 4.8 | 12.9 | 0.00 | 0.28 | 0.00 | 60 | 1012.8 |
| 20260510173516 | 23 | 359 | 3.2 | 11.3 | 0.00 | 0.28 | 0.00 | 65 | 1012.7 |
| 20260510172516 | 22 | 241 | 3.2 | 9.7 | 0.00 | 0.28 | 0.00 | 64 | 1012.6 |
| 20260510171537 | 22 | 336 | 4.8 | 9.7 | 0.00 | 0.28 | 0.00 | 67 | 1012.7 |
| 20260510170516 | 22 | 228 | 3.2 | 9.7 | 0.00 | 0.28 | 0.00 | 63 | 1012.7 |
| 20260510165517 | 21 | 300 | 4.8 | 9.7 | 0.00 | 0.28 | 0.00 | 69 | 1012.8 |
| 20260510164557 | 21 | 258 | 3.2 | 8.0 | 0.00 | 0.28 | 0.00 | 71 | 1012.9 |
| 20260510163517 | 21 | 306 | 3.2 | 6.4 | 0.00 | 0.28 | 0.00 | 71 | 1012.9 |
| 20260510162538 | 21 | 269 | 3.2 | 12.9 | 0.00 | 0.28 | 0.00 | 70 | 1013.0 |
| 20260510161518 | 20 | 282 | 3.2 | 8.0 | 0.00 | 0.28 | 0.00 | 74 | 1013.0 |
| 20260510160537 | 19 | 114 | 3.2 | 6.4 | 0.00 | 0.28 | 0.00 | 75 | 1013.1 |
| 20260510155518 | 18 | 178 | 3.2 | 8.0 | 0.00 | 0.28 | 0.00 | 75 | 1013.2 |
| 20260510154515 | 18 | 255 | 3.2 | 8.0 | 0.00 | 0.28 | 0.00 | 78 | 1013.4 |
| 20260510153515 | 17 | 72 | 3.2 | 6.4 | 0.00 | 0.28 | 0.00 | 81 | 1013.3 |
| 20260510152535 | 17 | 164 | 3.2 | 8.0 | 0.00 | 0.28 | 0.00 | 81 | 1013.5 |
| 20260510151515 | 16 | 272 | 3.2 | 8.0 | 0.00 | 0.28 | 0.00 | 83 | 1013.6 |
| 20260510150516 | 16 | 209 | 3.2 | 8.0 | 0.00 | 0.28 | 0.00 | 85 | 1013.5 |
| 20260510145516 | 15 | 243 | 3.2 | 6.4 | 0.00 | 0.28 | 0.00 | 86 | 1013.4 |
| 20260510144516 | 15 | 248 | 3.2 | 6.4 | 0.00 | 0.28 | 0.00 | 87 | 1013.5 |
| 20260510143556 | 15 | 193 | 3.2 | 8.0 | 0.00 | 0.28 | 0.00 | 88 | 1013.5 |
| 20260510142516 | 14 | 206 | 1.6 | 8.0 | 0.00 | 0.28 | 0.00 | 91 | 1013.5 |
| 20260510141516 | 13 | 207 | 3.2 | 8.0 | 0.00 | 0.28 | 0.00 | 92 | 1013.3 |
| 20260510140517 | 13 | 130 | 3.2 | 6.4 | 0.00 | 0.28 | 0.00 | 93 | 1013.3 |
| 20260510135517 | 13 | 195 | 3.2 | 6.4 | 0.00 | 0.28 | 0.00 | 95 | 1013.2 |
| 20260510134537 | 13 | 201 | 3.2 | 6.4 | 0.00 | 0.28 | 0.00 | 97 | 1013.2 |
| 20260510133537 | 12 | 147 | 3.2 | 6.4 | 0.00 | 0.28 | 0.00 | 98 | 1013.2 |
| 20260510132537 | 12 | 195 | 3.2 | 6.4 | 0.00 | 0.28 | 0.00 | 98 | 1013.3 |
| 20260510131517 | 12 | 224 | 3.2 | 4.8 | 0.00 | 0.28 | 0.00 | 99 | 1013.4 |
| 20260510130537 | 12 | 191 | 3.2 | 8.0 | 0.00 | 0.28 | 0.00 | 99 | 1013.3 |
| 20260510125518 | 12 | 196 | 1.6 | 4.8 | 0.00 | 0.28 | 0.00 | 99 | 1013.0 |
| 20260510124518 | 12 | 189 | 3.2 | 8.0 | 0.00 | 0.28 | 0.00 | 99 | 1012.9 |
| 20260510123515 | 12 | 111 | 3.2 | 6.4 | 0.00 | 0.28 | 0.00 | 100 | 1012.6 |
| 20260510122515 | 11 | 164 | 1.6 | 4.8 | 0.00 | 0.28 | 0.00 | 100 | 1012.7 |
| 20260510121516 | 11 | 172 | 3.2 | 9.7 | 0.00 | 0.28 | 0.00 | 99 | 1012.4 |
| 20260510120515 | 11 | 125 | 1.6 | 4.8 | 0.00 | 0.30 | 0.00 | 100 | 1012.3 |
| 20260510115516 | 11 | 195 | 1.6 | 4.8 | 0.00 | 0.30 | 0.00 | 100 | 1012.3 |
| 20260510114535 | 11 | 114 | 1.6 | 3.2 | 0.00 | 0.30 | 0.00 | 100 | 1012.4 |
| 20260510113516 | 11 | 182 | 3.2 | 4.8 | 0.00 | 0.30 | 0.00 | 100 | 1012.4 |
| 20260510112536 | 11 | 187 | 1.6 | 3.2 | 0.00 | 0.30 | 0.00 | 100 | 1012.4 |
| 20260510111516 | 11 | 309 | 1.6 | 3.2 | 0.00 | 0.30 | 0.00 | 100 | 1012.4 |
| 20260510110516 | 10 | 280 | 1.6 | 3.2 | 0.00 | 0.30 | 0.00 | 100 | 1012.2 |
| 20260510105517 | 10 | 223 | 1.6 | 1.6 | 0.00 | 0.30 | 0.00 | 100 | 1011.8 |
| 20260510104517 | 10 | 176 | 1.6 | 3.2 | 0.00 | 0.30 | 0.00 | 100 | 1011.7 |
| 20260510103537 | 10 | 103 | 1.6 | 3.2 | 0.00 | 0.30 | 0.00 | 100 | 1011.7 |
| 20260510102517 | 10 | 19 | 1.6 | 4.8 | 0.00 | 0.30 | 0.00 | 100 | 1011.8 |
| 20260510101517 | 10 | 256 | 0.0 | 1.6 | 0.00 | 0.30 | 0.00 | 100 | 1011.7 |
| 20260510100517 | 10 | 244 | 0.0 | 1.6 | 0.00 | 0.30 | 0.00 | 100 | 1011.6 |
| 20260510095517 | 10 | 137 | 1.6 | 3.2 | 0.00 | 0.30 | 0.00 | 100 | 1011.5 |
| 20260510094518 | 10 | 75 | 0.0 | 1.6 | 0.00 | 0.30 | 0.00 | 100 | 1011.6 |
| 20260510093518 | 10 | 31 | 0.0 | 1.6 | 0.00 | 0.30 | 0.00 | 100 | 1011.7 |
| 20260510092515 | 10 | 187 | 1.6 | 4.8 | 0.00 | 0.30 | 0.00 | 100 | 1011.7 |
| 20260510091515 | 10 | 207 | 1.6 | 3.2 | 0.00 | 0.30 | 0.00 | 100 | 1011.8 |
| 20260510090515 | 10 | 105 | 1.6 | 4.8 | 0.00 | 0.30 | 0.00 | 100 | 1011.8 |
| 20260510085536 | 10 | 30 | 1.6 | 6.4 | 0.00 | 0.30 | 0.00 | 100 | 1012.0 |
| 20260510084515 | 10 | 67 | 1.6 | 6.4 | 0.00 | 0.30 | 0.00 | 100 | 1011.9 |
| 20260510083516 | 10 | 61 | 1.6 | 6.4 | 0.00 | 0.30 | 0.00 | 100 | 1011.9 |
| 20260510082536 | 10 | 46 | 3.2 | 8.0 | 0.00 | 0.30 | 0.00 | 100 | 1011.8 |
| 20260510081536 | 10 | 54 | 1.6 | 3.2 | 0.00 | 0.30 | 0.00 | 99 | 1011.3 |
| 20260510080516 | 10 | 85 | 1.6 | 3.2 | 0.00 | 0.30 | 0.00 | 99 | 1011.2 |
| 20260510075517 | 10 | 129 | 1.6 | 1.6 | 0.00 | 0.30 | 0.00 | 99 | 1011.1 |
| 20260510074536 | 10 | 126 | 1.6 | 3.2 | 0.00 | 0.30 | 0.00 | 99 | 1011.1 |
| 20260510073517 | 10 | 235 | 0.0 | 1.6 | 0.00 | 0.30 | 0.00 | 99 | 1011.0 |
| 20260510072537 | 10 | 17 | 1.6 | 4.8 | 0.00 | 0.30 | 0.00 | 99 | 1011.0 |
| 20260510071517 | 10 | 34 | 0.0 | 3.2 | 0.00 | 0.30 | 0.00 | 99 | 1011.0 |
| 20260510070537 | 10 | 71 | 1.6 | 3.2 | 0.00 | 0.30 | 0.00 | 99 | 1011.0 |
| 20260510065537 | 10 | 26 | 1.6 | 4.8 | 0.00 | 0.30 | 0.00 | 99 | 1011.1 |
| 20260510064518 | 11 | 37 | 1.6 | 4.8 | 0.00 | 0.30 | 0.00 | 99 | 1011.0 |
| 20260510063538 | 11 | 14 | 1.6 | 3.2 | 0.00 | 0.30 | 0.00 | 99 | 1010.9 |
| 20260510062535 | 11 | 8 | 1.6 | 4.8 | 0.00 | 0.30 | 0.00 | 99 | 1010.8 |
| 20260510061558 | 11 | 46 | 1.6 | 3.2 | 0.00 | 0.30 | 0.00 | 99 | 1010.8 |
| 20260510060515 | 10 | 351 | 1.6 | 3.2 | 0.00 | 0.30 | 0.00 | 99 | 1010.8 |
| 20260510055516 | 10 | 302 | 0.0 | 3.2 | 0.00 | 0.30 | 0.00 | 99 | 1010.8 |
| 20260510054556 | 10 | 161 | 0.0 | 1.6 | 0.00 | 0.30 | 0.00 | 99 | 1010.9 |
| 20260510053516 | 10 | 11 | 1.6 | 3.2 | 0.00 | 0.30 | 0.00 | 99 | 1010.9 |
| 20260510052516 | 10 | 336 | 0.0 | 4.8 | 0.00 | 0.30 | 0.00 | 99 | 1010.9 |
| 20260510051516 | 10 | 301 | 0.0 | 3.2 | 0.00 | 0.30 | 0.00 | 99 | 1011.0 |
| 20260510050517 | 10 | 168 | 0.0 | 3.2 | 0.00 | 0.30 | 0.00 | 99 | 1011.1 |
| 20260510045516 | 9 | 353 | 1.6 | 3.2 | 0.00 | 0.30 | 0.00 | 99 | 1011.1 |
| 20260510044516 | 9 | 14 | 0.0 | 3.2 | 0.00 | 0.30 | 0.00 | 99 | 1011.1 |
| 20260510043517 | 9 | 331 | 0.0 | 3.2 | 0.00 | 0.30 | 0.00 | 99 | 1011.1 |
| 20260510042517 | 9 | 12 | 0.0 | 3.2 | 0.00 | 0.30 | 0.00 | 98 | 1011.2 |
| 20260510041517 | 9 | 248 | 0.0 | 3.2 | 0.00 | 0.30 | 0.00 | 98 | 1011.2 |
| 20260510040517 | 8 | 32 | 1.6 | 4.8 | 0.00 | 0.30 | 0.00 | 98 | 1011.2 |
| 20260510035517 | 8 | 18 | 0.0 | 3.2 | 0.00 | 0.30 | 0.30 | 98 | 1011.2 |
| 20260510034517 | 8 | 327 | 0.0 | 1.6 | 0.00 | 0.30 | 0.30 | 98 | 1011.0 |
| 20260510033518 | 8 | 15 | 1.6 | 3.2 | 0.00 | 0.30 | 0.30 | 98 | 1010.9 |
| 20260510032518 | 8 | 192 | 0.0 | 1.6 | 0.00 | 0.30 | 0.30 | 98 | 1010.9 |
| 20260510031518 | 9 | 3 | 0.0 | 1.6 | 0.00 | 0.30 | 0.30 | 98 | 1010.8 |
| 20260510030516 | 9 | 14 | 1.6 | 3.2 | 0.00 | 0.30 | 0.30 | 98 | 1010.8 |
| 20260510025515 | 9 | 41 | 0.0 | 3.2 | 0.00 | 0.30 | 0.30 | 98 | 1010.7 |
| 20260510024515 | 9 | 8 | 0.0 | 3.2 | 0.00 | 0.30 | 0.30 | 98 | 1010.7 |
| 20260510023535 | 9 | 20 | 0.0 | 3.2 | 0.00 | 0.30 | 0.30 | 98 | 1010.7 |
| 20260510022516 | 10 | 6 | 1.6 | 3.2 | 0.00 | 0.30 | 0.30 | 97 | 1010.8 |
| 20260510021516 | 10 | 22 | 0.0 | 3.2 | 0.00 | 0.30 | 0.30 | 97 | 1010.8 |
| 20260510020516 | 10 | 267 | 0.0 | 1.6 | 0.00 | 0.30 | 0.30 | 97 | 1010.8 |
| 20260510015516 | 10 | 0 | 0.0 | 3.2 | 0.00 | 0.30 | 0.30 | 97 | 1010.6 |
| 20260510014517 | 10 | 19 | 0.0 | 1.6 | 0.00 | 0.30 | 0.30 | 97 | 1010.7 |
| 20260510013516 | 10 | 8 | 0.0 | 1.6 | 0.00 | 0.30 | 0.30 | 97 | 1010.9 |
| 20260510012537 | 10 | 4 | 0.0 | 1.6 | 0.00 | 0.30 | 0.30 | 97 | 1010.7 |
| 20260510011517 | 11 | 16 | 0.0 | 1.6 | 0.00 | 0.30 | 0.30 | 96 | 1010.7 |
| 20260510010537 | 11 | 22 | 0.0 | 1.6 | 0.00 | 0.30 | 0.30 | 96 | 1010.7 |
| 20260510005517 | 11 | 8 | 1.6 | 1.6 | 0.00 | 0.30 | 0.30 | 96 | 1010.4 |
| 20260510004518 | 11 | 79 | 0.0 | 1.6 | 0.00 | 0.30 | 0.30 | 96 | 1010.3 |
| 20260510003535 | 11 | 75 | 0.0 | 1.6 | 0.00 | 0.30 | 0.30 | 95 | 1010.3 |
| 20260510002516 | 12 | 26 | 0.0 | 1.6 | 0.00 | 0.30 | 0.30 | 95 | 1010.2 |
| 20260510001515 | 12 | 15 | 1.6 | 3.2 | 0.00 | 0.30 | 0.30 | 95 | 1010.2 |
| 20260510000516 | 12 | 10 | 0.0 | 1.6 | 0.00 | 0.30 | 0.30 | 94 | 1010.2 |
| 20260509235516 | 12 | 353 | 1.6 | 3.2 | 0.00 | 0.30 | 0.30 | 94 | 1010.2 |
| 20260509234536 | 13 | 358 | 0.0 | 1.6 | 0.00 | 0.30 | 0.30 | 93 | 1010.2 |
| 20260509233517 | 13 | 339 | 0.0 | 3.2 | 0.00 | 0.30 | 0.30 | 92 | 1010.1 |
| 20260509232537 | 13 | 44 | 1.6 | 3.2 | 0.00 | 0.30 | 0.30 | 92 | 1010.1 |
| 20260509231537 | 13 | 69 | 1.6 | 3.2 | 0.00 | 0.30 | 0.30 | 91 | 1009.9 |